Time;durP1;ratioP1;P1;durP2;ratioP2;P2;SDS_P1;SDS_P2;PMS_P1;PMS_P2;Temp;Humidity;BMP_temperature;BMP_pressure;BME280_temperature;BME280_humidity;BME280_pressure;Samples;Min_cycle;Max_cycle;Signal;HPM_P1;HPM_P2
2021/11/09 00:01:54;;;;;;;111.20;19.98;;;10.30;89.30;;;;;;5008973;28;20044;-62
2021/11/09 00:04:22;;;;;;;128.15;18.75;;;10.20;89.20;;;;;;5025639;28;20028;-62
2021/11/09 00:06:58;;;;;;;148.70;22.55;;;10.20;89.20;;;;;;5040396;28;20489;-63
2021/11/09 00:09:23;;;;;;;;;;;10.20;89.30;;;;;;5028352;28;20100;-62
2021/11/09 00:11:49;;;;;;;110.35;17.60;;;10.20;89.40;;;;;;5043073;28;20454;-62
2021/11/09 00:14:15;;;;;;;143.30;19.27;;;10.10;89.30;;;;;;5027318;28;20037;-62
2021/11/09 00:16:40;;;;;;;94.07;16.95;;;10.20;89.50;;;;;;5025187;28;20578;-62
2021/11/09 00:19:06;;;;;;;120.47;22.75;;;10.10;89.50;;;;;;5039915;28;20036;-62
2021/11/09 00:21:31;;;;;;;117.38;19.73;;;10.10;89.40;;;;;;5041458;28;20073;-62
2021/11/09 00:24:00;;;;;;;134.18;20.35;;;10.10;89.40;;;;;;5044691;28;20554;-63
2021/11/09 00:26:26;;;;;;;104.25;18.63;;;10.10;89.50;;;;;;5027016;28;20017;-62
2021/11/09 00:28:52;;;;;;;123.60;18.35;;;10.00;89.40;;;;;;5025211;28;20043;-62
2021/11/09 00:31:17;;;;;;;113.25;18.95;;;10.00;89.40;;;;;;5041678;28;20021;-63
2021/11/09 00:33:43;;;;;;;103.00;18.88;;;10.00;89.50;;;;;;5023936;28;20132;-62
2021/11/09 00:36:08;;;;;;;90.88;16.88;;;10.00;89.50;;;;;;5026781;28;20099;-62
2021/11/09 00:38:35;;;;;;;90.90;17.00;;;10.00;89.50;;;;;;5043266;28;20021;-63
2021/11/09 00:41:00;;;;;;;87.88;16.15;;;10.00;89.50;;;;;;5025823;28;20052;-63
2021/11/09 00:43:26;;;;;;;89.43;15.68;;;9.90;89.60;;;;;;5006099;28;20392;-62
2021/11/09 00:45:52;;;;;;;93.57;17.40;;;9.90;89.50;;;;;;5042522;28;20212;-62
2021/11/09 00:48:17;;;;;;;94.32;16.67;;;9.90;89.50;;;;;;5024678;28;20047;-60
2021/11/09 00:50:44;;;;;;;87.82;14.98;;;9.90;89.50;;;;;;5043064;28;20419;-60
2021/11/09 00:53:10;;;;;;;99.93;17.15;;;9.90;89.60;;;;;;5042343;28;20025;-63
2021/11/09 00:55:36;;;;;;;88.78;16.75;;;9.90;89.60;;;;;;5022483;28;20366;-62
2021/11/09 00:58:02;;;;;;;82.65;16.48;;;9.90;89.50;;;;;;5022904;28;20024;-62
2021/11/09 01:00:28;;;;;;;72.57;15.38;;;9.80;89.50;;;;;;5023866;28;20041;-62
2021/11/09 01:02:54;;;;;;;82.22;15.05;;;9.80;89.50;;;;;;5023457;28;20037;-63
2021/11/09 01:05:23;;;;;;;96.03;15.73;;;9.80;89.70;;;;;;5024686;28;20051;-63
2021/11/09 01:07:50;;;;;;;93.88;16.27;;;9.80;89.60;;;;;;5006140;28;20045;-62
2021/11/09 01:10:17;;;;;;;79.28;15.15;;;9.80;89.60;;;;;;5024552;28;20045;-62
2021/11/09 01:12:43;;;;;;;75.38;13.52;;;9.80;89.70;;;;;;5021733;28;20075;-62
2021/11/09 01:15:09;;;;;;;82.20;13.65;;;9.70;89.60;;;;;;5025725;28;20100;-63
2021/11/09 01:17:34;;;;;;;69.53;14.07;;;9.70;89.60;;;;;;5022415;28;20108;-62
2021/11/09 01:20:00;;;;;;;77.85;14.13;;;9.70;89.70;;;;;;5040236;28;20056;-62
2021/11/09 01:22:25;;;;;;;70.70;12.52;;;9.70;89.60;;;;;;5037378;28;20052;-62
2021/11/09 01:24:51;;;;;;;57.10;14.82;;;9.70;89.60;;;;;;5040587;28;20124;-63
2021/11/09 01:27:17;;;;;;;62.78;13.82;;;9.60;89.70;;;;;;5021305;28;20063;-62
2021/11/09 01:29:43;;;;;;;80.95;14.77;;;9.60;89.70;;;;;;5037198;28;20115;-62
2021/11/09 01:32:09;;;;;;;76.78;12.43;;;9.60;89.70;;;;;;5040801;28;20102;-63
2021/11/09 01:34:35;;;;;;;59.90;13.13;;;9.60;89.60;;;;;;5039572;28;21549;-62
2021/11/09 01:37:00;;;;;;;63.30;13.40;;;9.60;89.60;;;;;;5019463;28;20427;-62
2021/11/09 01:39:26;;;;;;;64.35;13.85;;;9.60;89.50;;;;;;5040427;28;20512;-62
2021/11/09 01:41:51;;;;;;;61.88;13.13;;;9.60;89.50;;;;;;5023668;28;20029;-63
2021/11/09 01:44:17;;;;;;;59.25;13.70;;;9.60;89.40;;;;;;5023382;28;20291;-63
2021/11/09 01:46:44;;;;;;;50.95;11.80;;;9.60;89.40;;;;;;5021137;28;20068;-62
2021/11/09 01:49:09;;;;;;;63.42;13.40;;;9.60;89.40;;;;;;5001747;28;20112;-62
2021/11/09 01:51:35;;;;;;;51.13;12.77;;;9.60;89.40;;;;;;5039978;28;20047;-62
2021/11/09 01:54:01;;;;;;;60.70;12.90;;;9.50;89.30;;;;;;5021671;28;20044;-62
2021/11/09 01:56:28;;;;;;;57.03;13.05;;;9.50;89.40;;;;;;5022921;28;20052;-63
2021/11/09 01:58:54;;;;;;;61.10;12.35;;;9.50;89.30;;;;;;5040768;28;20028;-62
2021/11/09 02:01:20;;;;;;;60.83;13.10;;;9.50;89.40;;;;;;5039644;28;20028;-62
2021/11/09 02:03:47;;;;;;;59.30;11.90;;;9.50;89.30;;;;;;5020511;28;20075;-62
2021/11/09 02:06:13;;;;;;;51.88;11.68;;;9.50;89.40;;;;;;5023561;28;20106;-62
2021/11/09 02:08:40;;;;;;;41.63;11.13;;;9.40;89.40;;;;;;5022321;28;20581;-62
2021/11/09 02:11:05;;;;;;;49.00;12.23;;;9.40;89.30;;;;;;5022468;28;20370;-62
2021/11/09 02:13:31;;;;;;;55.58;13.63;;;9.40;89.30;;;;;;5020861;28;20049;-62
2021/11/09 02:15:57;;;;;;;45.65;11.98;;;9.40;89.50;;;;;;5037766;28;20083;-62
2021/11/09 02:18:23;;;;;;;56.05;12.75;;;9.40;89.60;;;;;;5021405;28;20503;-62
2021/11/09 02:20:53;;;;;;;49.90;12.77;;;9.30;89.60;;;;;;5024389;28;20025;-63
2021/11/09 02:23:19;;;;;;;47.08;12.10;;;9.30;89.60;;;;;;5032653;28;20597;-62
2021/11/09 02:25:44;;;;;;;90.88;14.57;;;9.30;89.60;;;;;;5036784;28;20044;-62
2021/11/09 02:28:10;;;;;;;106.82;18.00;;;9.30;89.60;;;;;;5037904;28;20029;-62
2021/11/09 02:30:36;;;;;;;78.70;14.40;;;9.30;89.60;;;;;;5037528;28;20224;-62
2021/11/09 02:33:01;;;;;;;70.13;14.07;;;9.20;89.50;;;;;;5038167;28;20039;-62
2021/11/09 02:35:27;;;;;;;64.72;13.77;;;9.20;89.50;;;;;;5039282;28;20021;-63
2021/11/09 02:37:54;;;;;;;72.65;14.15;;;9.20;89.50;;;;;;5036720;28;20392;-62
2021/11/09 02:40:20;;;;;;;85.15;13.82;;;9.20;89.40;;;;;;5037819;28;20025;-62
2021/11/09 02:42:49;;;;;;;55.47;13.38;;;9.20;89.30;;;;;;5037783;28;20025;-62
2021/11/09 02:45:19;;;;;;;64.15;11.93;;;9.20;89.20;;;;;;5022114;28;20048;-62
2021/11/09 02:47:56;;;;;;;80.05;13.88;;;9.20;89.20;;;;;;5043498;28;20037;-62
2021/11/09 02:50:26;;;;;;;55.35;12.18;;;9.20;89.10;;;;;;5025703;28;20025;-62
2021/11/09 02:52:59;;;;;;;55.78;11.85;;;9.10;88.80;;;;;;5022224;28;20013;-62
2021/11/09 02:55:35;;;;;;;58.60;11.77;;;9.10;88.80;;;;;;5043017;28;20059;-62
2021/11/09 03:00:34;;;;;;;79.78;12.50;;;9.10;88.90;;;;;;5044040;28;20029;-62
2021/11/09 03:03:07;;;;;;;56.38;11.75;;;9.10;88.90;;;;;;5040768;28;20083;-62
2021/11/09 03:05:50;;;;;;;55.30;11.07;;;9.10;89.00;;;;;;5043043;28;20430;-62
2021/11/09 03:08:43;;;;;;;41.67;10.43;;;9.10;89.00;;;;;;5042986;28;20029;-62
2021/11/09 03:11:09;;;;;;;51.00;11.52;;;9.10;88.90;;;;;;5040066;28;20451;-63
2021/11/09 03:13:36;;;;;;;53.67;9.82;;;9.10;89.00;;;;;;5044090;28;20036;-62
2021/11/09 03:16:07;;;;;;;42.05;10.93;;;9.10;89.80;;;;;;5034357;28;20498;-63
2021/11/09 03:18:39;;;;;;;42.83;10.82;;;9.00;89.10;;;;;;5040165;28;20074;-62
2021/11/09 03:45:19;;;;;;;39.88;8.98;;;8.90;89.70;;;;;;5025768;28;20396;-62
2021/11/09 03:47:48;;;;;;;38.25;9.18;;;8.90;89.60;;;;;;5020194;28;20029;-62
2021/11/09 03:50:15;;;;;;;34.72;9.38;;;9.00;90.10;;;;;;5026557;28;20037;-63
2021/11/09 03:52:45;;;;;;;27.58;8.57;;;8.90;89.70;;;;;;5042296;28;20051;-63
2021/11/09 03:55:14;;;;;;;31.38;7.90;;;8.90;89.70;;;;;;5025325;28;20021;-62
2021/11/09 03:57:49;;;;;;;32.55;8.88;;;8.90;89.60;;;;;;5024776;28;20017;-62
2021/11/09 04:05:12;;;;;;;29.95;9.73;;;8.90;89.30;;;;;;5042426;28;20408;-62
2021/11/09 04:15:16;;;;;;;30.17;10.73;;;8.90;89.20;;;;;;5041739;28;20278;-62
2021/11/09 04:17:59;;;;;;;30.65;9.48;;;8.80;89.10;;;;;;5026173;28;20036;-62
2021/11/09 04:43:13;;;;;;;25.52;8.50;;;8.80;89.30;;;;;;5024645;28;20052;-62
2021/11/09 05:11:40;;;;;;;31.35;8.60;;;8.80;89.80;;;;;;5024865;28;20037;-62
2021/11/09 05:14:09;;;;;;;16.38;7.00;;;8.80;89.60;;;;;;5038529;28;20028;-62
2021/11/09 05:16:34;;;;;;;17.27;6.82;;;8.80;89.60;;;;;;5005324;28;20056;-63
2021/11/09 05:19:00;;;;;;;22.17;7.55;;;8.70;89.70;;;;;;5039767;28;20064;-63
2021/11/09 05:21:26;;;;;;;21.67;7.07;;;8.70;89.60;;;;;;5006103;28;20107;-62
2021/11/09 05:23:51;;;;;;;24.45;7.85;;;8.70;89.60;;;;;;5005001;28;20040;-62
2021/11/09 05:26:17;;;;;;;17.83;6.18;;;8.70;89.80;;;;;;5036480;28;20048;-62
2021/11/09 05:28:43;;;;;;;17.00;6.70;;;8.70;89.70;;;;;;5039936;28;20020;-63
2021/11/09 05:31:08;;;;;;;19.73;6.68;;;8.70;89.70;;;;;;5039735;28;20496;-62
2021/11/09 05:33:34;;;;;;;17.02;6.50;;;8.70;89.70;;;;;;5020337;28;20044;-63
2021/11/09 05:36:01;;;;;;;20.85;7.30;;;8.70;89.60;;;;;;5042224;28;20061;-63
2021/11/09 05:38:32;;;;;;;18.27;7.47;;;8.70;89.60;;;;;;5037567;28;20025;-62
2021/11/09 05:41:06;;;;;;;15.00;6.85;;;8.70;89.60;;;;;;5023105;28;20116;-62
2021/11/09 05:43:31;;;;;;;16.73;6.75;;;8.70;89.60;;;;;;5038648;28;20129;-62
2021/11/09 05:45:57;;;;;;;17.27;7.43;;;8.70;89.60;;;;;;5038875;28;20119;-63
2021/11/09 05:48:22;;;;;;;14.18;6.95;;;8.60;89.60;;;;;;5039685;28;20504;-62
2021/11/09 05:50:49;;;;;;;23.48;7.20;;;8.60;89.70;;;;;;5040890;28;20041;-62
2021/11/09 05:53:15;;;;;;;21.98;6.25;;;8.60;89.80;;;;;;5004733;28;20713;-63
2021/11/09 05:55:40;;;;;;;19.58;6.20;;;8.60;89.80;;;;;;5005168;28;20028;-63
2021/11/09 05:58:06;;;;;;;21.80;7.00;;;8.60;89.80;;;;;;5039432;28;20025;-63
2021/11/09 06:00:32;;;;;;;18.85;7.28;;;8.60;89.70;;;;;;5033031;28;20183;-63
2021/11/09 06:02:57;;;;;;;18.98;6.45;;;8.60;89.70;;;;;;5037771;28;20433;-63
2021/11/09 06:05:23;;;;;;;20.48;7.57;;;8.60;89.80;;;;;;5005726;28;20719;-62
2021/11/09 06:07:48;;;;;;;16.77;6.53;;;8.60;89.80;;;;;;5023118;28;20024;-62
2021/11/09 06:10:14;;;;;;;15.88;5.90;;;8.60;89.90;;;;;;5036226;28;20021;-63
2021/11/09 06:12:39;;;;;;;15.23;6.10;;;8.60;89.90;;;;;;5037255;28;20437;-62
2021/11/09 06:15:05;;;;;;;17.25;7.03;;;8.60;89.80;;;;;;5041351;28;20406;-62
2021/11/09 06:17:30;;;;;;;12.18;6.20;;;8.50;89.70;;;;;;5038408;28;20518;-63
2021/11/09 06:19:56;;;;;;;17.08;6.53;;;8.50;89.70;;;;;;5041733;28;20036;-62
2021/11/09 06:22:22;;;;;;;18.95;6.70;;;8.50;89.80;;;;;;5019959;28;20140;-63
2021/11/09 06:24:48;;;;;;;15.07;6.63;;;8.50;89.70;;;;;;5030165;28;20036;-63
2021/11/09 06:27:15;;;;;;;18.85;6.60;;;8.60;89.70;;;;;;5007801;28;20138;-63
2021/11/09 06:29:41;;;;;;;16.35;5.82;;;8.60;89.70;;;;;;5011626;28;20040;-63
2021/11/09 06:32:06;;;;;;;15.00;6.13;;;8.60;89.70;;;;;;5002701;28;20025;-63
2021/11/09 06:34:32;;;;;;;15.75;6.47;;;8.50;89.60;;;;;;5008414;28;20130;-63
2021/11/09 06:36:57;;;;;;;14.90;5.70;;;8.60;90.10;;;;;;5039772;28;20045;-62
2021/11/09 06:39:24;;;;;;;17.27;5.95;;;8.60;89.60;;;;;;4998897;28;20068;-63
2021/11/09 06:41:51;;;;;;;18.25;5.72;;;8.60;89.60;;;;;;5017625;28;20094;-63
2021/11/09 06:44:16;;;;;;;20.05;5.80;;;8.50;89.50;;;;;;5006576;28;20017;-62
2021/11/09 06:46:42;;;;;;;14.80;5.38;;;8.60;89.50;;;;;;5045353;28;20045;-61
2021/11/09 06:49:08;;;;;;;17.33;6.45;;;8.60;89.50;;;;;;5003566;28;20094;-61
2021/11/09 06:51:34;;;;;;;16.20;5.80;;;8.50;89.40;;;;;;5022471;28;20439;-60
2021/11/09 06:54:00;;;;;;;11.98;5.53;;;8.50;89.50;;;;;;5004960;28;20322;-60
2021/11/09 06:56:26;;;;;;;14.20;5.88;;;8.50;89.50;;;;;;5007575;28;20021;-61
2021/11/09 06:58:52;;;;;;;14.27;5.80;;;8.50;89.40;;;;;;5021251;28;20376;-61
2021/11/09 07:01:18;;;;;;;16.33;5.95;;;8.60;89.50;;;;;;5042364;28;20458;-61
2021/11/09 07:03:44;;;;;;;13.43;5.75;;;8.50;89.50;;;;;;5010178;28;20056;-61
2021/11/09 07:06:10;;;;;;;14.40;5.68;;;8.50;89.50;;;;;;4998568;28;20643;-60
2021/11/09 07:08:35;;;;;;;12.93;5.75;;;8.50;89.40;;;;;;5023792;28;20073;-61
2021/11/09 07:11:03;;;;;;;15.00;5.32;;;8.50;89.40;;;;;;5023305;28;20025;-61
2021/11/09 07:13:29;;;;;;;15.23;5.95;;;8.50;89.40;;;;;;5020761;28;20500;-60
2021/11/09 07:15:54;;;;;;;15.55;6.55;;;8.50;89.40;;;;;;4988808;28;20200;-60
2021/11/09 07:18:20;;;;;;;14.75;5.95;;;8.50;89.20;;;;;;5021951;28;20200;-60
2021/11/09 07:20:46;;;;;;;17.25;5.63;;;8.50;89.20;;;;;;5023038;28;20030;-60
2021/11/09 07:23:11;;;;;;;14.18;5.35;;;8.50;89.20;;;;;;5036710;28;20433;-61
2021/11/09 07:25:37;;;;;;;15.30;6.50;;;8.50;89.10;;;;;;5024795;28;20029;-60
2021/11/09 07:28:02;;;;;;;11.30;5.38;;;8.50;89.00;;;;;;5005569;28;20024;-60
2021/11/09 07:30:38;;;;;;;11.57;6.13;;;8.50;89.00;;;;;;5038177;28;20045;-60
2021/11/09 07:33:04;;;;;;;9.10;5.53;;;8.50;89.00;;;;;;5021002;28;20508;-61
2021/11/09 07:35:29;;;;;;;14.13;6.05;;;8.50;89.00;;;;;;5007141;28;20124;-60
2021/11/09 07:37:55;;;;;;;10.43;5.20;;;8.50;88.90;;;;;;5021822;28;20079;-61
2021/11/09 07:40:20;;;;;;;14.80;5.93;;;8.50;88.90;;;;;;5042385;28;20200;-60
2021/11/09 07:42:49;;;;;;;10.50;5.28;;;8.50;88.90;;;;;;5019246;28;20561;-60
2021/11/09 07:45:18;;;;;;;16.80;6.45;;;8.50;88.90;;;;;;5024909;28;20033;-61
2021/11/09 07:47:44;;;;;;;14.43;6.47;;;8.50;89.00;;;;;;5041452;28;20021;-61
2021/11/09 07:50:10;;;;;;;11.82;6.47;;;8.50;89.10;;;;;;5024758;28;20025;-61
2021/11/09 07:52:36;;;;;;;19.00;6.25;;;8.40;89.00;;;;;;5021108;28;20032;-62
2021/11/09 07:55:05;;;;;;;15.20;5.47;;;8.50;89.00;;;;;;5020402;28;20020;-62
2021/11/09 07:57:41;;;;;;;16.17;5.32;;;8.60;89.00;;;;;;5021604;28;20732;-62
2021/11/09 08:00:20;;;;;;;21.75;6.07;;;8.50;89.00;;;;;;5028076;28;20044;-63
2021/11/09 08:03:35;;;;;;;19.83;6.35;;;8.60;89.00;;;;;;5040196;28;20025;-63
2021/11/09 08:08:18;;;;;;;15.52;6.05;;;8.60;89.00;;;;;;5021083;28;20037;-62
2021/11/09 08:10:43;;;;;;;26.20;6.60;;;8.60;88.80;;;;;;5009563;28;20044;-62
2021/11/09 08:13:09;;;;;;;25.85;7.22;;;8.60;88.70;;;;;;5004690;28;20395;-60
2021/11/09 08:15:35;;;;;;;98.93;13.30;;;8.60;88.50;;;;;;5023947;28;20116;-60
2021/11/09 08:18:00;;;;;;;59.03;8.82;;;8.60;88.50;;;;;;5023666;28;20202;-61
2021/11/09 08:20:26;;;;;;;29.92;7.60;;;8.60;88.60;;;;;;5018110;28;20505;-61
2021/11/09 08:22:51;;;;;;;17.67;6.90;;;8.60;88.60;;;;;;5030802;28;20045;-60
2021/11/09 08:25:17;;;;;;;29.27;8.05;;;8.60;88.60;;;;;;5042226;28;20025;-61
2021/11/09 08:27:43;;;;;;;24.45;8.65;;;8.60;88.40;;;;;;5041185;28;20115;-60
2021/11/09 08:30:09;;;;;;;36.55;9.30;;;8.60;88.40;;;;;;5038926;28;20399;-60
2021/11/09 08:32:34;;;;;;;25.25;7.75;;;8.60;88.50;;;;;;5037525;28;20581;-60
2021/11/09 08:35:00;;;;;;;24.77;8.18;;;8.60;88.40;;;;;;5018264;28;20113;-60
2021/11/09 08:37:26;;;;;;;23.75;7.47;;;8.60;88.40;;;;;;5037429;28;20370;-60
2021/11/09 08:39:51;;;;;;;22.23;8.13;;;8.60;88.40;;;;;;5037325;28;20043;-60
2021/11/09 08:45:06;;;;;;;42.53;9.65;;;8.70;88.40;;;;;;5038844;28;20662;-63
2021/11/09 08:47:35;;;;;;;37.28;8.27;;;8.70;88.30;;;;;;5023840;28;20056;-62
2021/11/09 08:50:00;;;;;;;37.67;8.52;;;8.70;88.30;;;;;;5039251;28;20128;-63
2021/11/09 08:52:29;;;;;;;48.70;10.38;;;8.70;88.30;;;;;;5039797;28;20364;-63
2021/11/09 09:04:12;;;;;;;51.67;10.25;;;8.80;88.50;;;;;;5021794;28;20451;-63
2021/11/09 09:05:58;;;;;;;45.25;10.50;;;8.80;88.30;;;;;;5042260;28;20525;-63
2021/11/09 09:08:24;;;;;;;52.08;10.80;;;8.80;88.30;;;;;;5039488;28;20056;-65
2021/11/09 09:10:49;;;;;;;47.53;11.13;;;8.80;88.50;;;;;;5035782;28;20100;-63
2021/11/09 09:13:15;;;;;;;50.47;10.95;;;8.80;88.40;;;;;;5020599;28;20033;-62
2021/11/09 09:15:40;;;;;;;54.38;10.80;;;8.80;88.30;;;;;;5021504;28;20392;-63
2021/11/09 09:18:06;;;;;;;67.25;10.82;;;8.80;88.30;;;;;;5039699;28;20106;-62
2021/11/09 09:20:40;;;;;;;64.57;11.30;;;8.80;88.30;;;;;;5023851;28;20029;-62
2021/11/09 09:23:13;;;;;;;54.75;11.55;;;8.80;88.30;;;;;;5031663;28;21253;-62
2021/11/09 09:28:44;;;;;;;62.25;12.60;;;8.90;88.90;;;;;;5034229;28;20060;-62
2021/11/09 09:55:39;;;;;;;41.58;9.80;;;8.90;87.80;;;;;;5038120;28;20036;-60
2021/11/09 09:58:05;;;;;;;29.17;9.20;;;9.00;87.80;;;;;;5036916;28;20028;-61
2021/11/09 10:00:30;;;;;;;31.40;9.48;;;9.00;87.80;;;;;;5041584;28;20143;-61
2021/11/09 10:02:57;;;;;;;29.58;9.57;;;9.00;87.80;;;;;;5033243;28;20420;-61
2021/11/09 10:05:24;;;;;;;36.55;9.55;;;9.10;87.70;;;;;;5024218;28;20032;-60
2021/11/09 10:07:52;;;;;;;33.83;8.70;;;9.00;87.70;;;;;;5021641;28;20037;-60
2021/11/09 10:10:18;;;;;;;30.13;9.82;;;9.00;87.70;;;;;;5010658;28;20549;-63
2021/11/09 10:12:45;;;;;;;71.95;13.02;;;9.10;87.70;;;;;;5036125;28;20041;-63
2021/11/09 10:15:13;;;;;;;79.90;12.75;;;9.10;87.50;;;;;;5024244;28;20018;-64
2021/11/09 10:17:40;;;;;;;45.85;10.15;;;9.00;87.50;;;;;;5037247;28;20033;-63
2021/11/09 10:20:10;;;;;;;44.72;9.40;;;9.10;87.50;;;;;;5038341;28;20120;-63
2021/11/09 10:22:36;;;;;;;33.45;9.13;;;9.10;87.50;;;;;;5039384;28;20052;-63
2021/11/09 10:25:14;;;;;;;44.33;10.95;;;9.10;87.50;;;;;;5040820;28;20216;-63
2021/11/09 10:27:40;;;;;;;39.42;10.10;;;9.10;87.40;;;;;;5038945;28;20472;-61
2021/11/09 10:30:07;;;;;;;42.00;10.48;;;9.10;87.50;;;;;;5038355;28;20309;-61
2021/11/09 10:32:33;;;;;;;27.42;9.63;;;9.00;87.40;;;;;;5036423;28;20124;-60
2021/11/09 10:35:00;;;;;;;42.42;10.88;;;9.10;87.30;;;;;;5022136;28;20143;-61
2021/11/09 10:37:27;;;;;;;32.80;9.48;;;9.20;87.50;;;;;;5034393;28;20036;-61
2021/11/09 10:39:55;;;;;;;33.95;9.15;;;9.10;87.20;;;;;;5041212;28;20059;-60
2021/11/09 10:42:22;;;;;;;26.73;8.85;;;9.10;87.20;;;;;;5037279;28;20025;-60
2021/11/09 10:44:57;;;;;;;27.80;9.02;;;9.20;87.30;;;;;;5040918;28;20093;-60
2021/11/09 10:47:26;;;;;;;30.17;8.87;;;9.20;87.10;;;;;;5022613;28;20056;-61
2021/11/09 10:49:59;;;;;;;30.20;8.77;;;9.20;87.00;;;;;;5039629;28;20087;-60
2021/11/09 10:52:34;;;;;;;36.03;9.50;;;9.20;86.90;;;;;;5020802;28;20613;-60
2021/11/09 10:55:09;;;;;;;43.17;9.88;;;9.20;86.90;;;;;;5022032;28;20126;-60
2021/11/09 10:57:44;;;;;;;55.67;11.32;;;9.20;87.00;;;;;;5036323;28;20056;-60
2021/11/09 11:05:21;;;;;;;60.67;12.87;;;9.30;86.90;;;;;;5041409;28;20037;-60
2021/11/09 11:07:51;;;;;;;68.20;11.13;;;9.30;86.80;;;;;;5043284;28;20045;-61
2021/11/09 11:10:25;;;;;;;37.65;9.70;;;9.40;86.80;;;;;;5043495;28;20068;-61
2021/11/09 11:12:52;;;;;;;69.55;13.20;;;9.40;86.70;;;;;;5019711;28;20033;-60
2021/11/09 11:15:17;;;;;;;54.40;11.00;;;9.40;86.60;;;;;;5041865;28;20088;-61
2021/11/09 11:17:45;;;;;;;41.33;10.77;;;9.40;86.50;;;;;;5040303;28;20143;-61
2021/11/09 11:20:11;;;;;;;39.75;9.20;;;9.40;86.40;;;;;;5042385;28;20029;-61
2021/11/09 11:22:36;;;;;;;51.53;11.60;;;9.50;86.40;;;;;;5041032;28;20064;-60
2021/11/09 11:25:02;;;;;;;48.95;11.07;;;9.50;86.40;;;;;;5041661;28;20044;-61
2021/11/09 11:27:32;;;;;;;53.90;11.85;;;9.50;86.30;;;;;;5040531;28;20293;-61
2021/11/09 11:29:58;;;;;;;70.88;12.13;;;9.50;86.30;;;;;;5042442;28;20534;-60
2021/11/09 11:32:24;;;;;;;76.85;10.95;;;9.50;86.30;;;;;;5041002;28;20492;-61
2021/11/09 11:34:51;;;;;;;54.45;10.50;;;9.50;86.20;;;;;;5043397;28;20029;-61
2021/11/09 11:37:18;;;;;;;52.38;11.45;;;9.50;86.10;;;;;;5041823;28;20025;-60
2021/11/09 11:39:44;;;;;;;43.38;10.25;;;9.50;86.20;;;;;;5043261;28;20088;-60
2021/11/09 11:42:13;;;;;;;38.17;8.85;;;9.60;86.10;;;;;;5040567;28;20209;-60
2021/11/09 11:44:41;;;;;;;41.22;10.25;;;9.60;86.00;;;;;;5042427;28;20167;-60
2021/11/09 11:47:23;;;;;;;50.55;11.15;;;9.60;85.90;;;;;;5041265;28;20029;-61
2021/11/09 11:49:54;;;;;;;51.20;11.45;;;9.60;86.00;;;;;;5040659;28;20063;-60
2021/11/09 11:52:23;;;;;;;41.25;9.88;;;9.60;86.70;;;;;;5042796;28;20130;-60
2021/11/09 11:54:49;;;;;;;35.67;10.10;;;9.60;86.00;;;;;;5027529;28;20024;-60
2021/11/09 11:57:41;;;;;;;34.08;9.32;;;9.70;85.90;;;;;;5042470;28;20112;-61
2021/11/09 12:00:28;;;;;;;40.95;10.35;;;9.60;85.80;;;;;;5043242;28;20028;-60
2021/11/09 12:02:53;;;;;;;26.58;9.35;;;9.60;85.70;;;;;;5041109;28;20081;-59
2021/11/09 12:05:40;;;;;;;38.10;9.50;;;9.60;85.60;;;;;;5039607;28;20138;-60
2021/11/09 12:08:06;;;;;;;36.22;9.35;;;9.60;85.50;;;;;;5041272;28;20028;-61
2021/11/09 12:10:49;;;;;;;37.30;9.95;;;9.60;85.50;;;;;;5052379;28;20033;-60
2021/11/09 12:13:16;;;;;;;70.50;12.90;;;9.60;85.30;;;;;;5040080;28;20036;-60
2021/11/09 12:15:46;;;;;;;53.95;10.65;;;9.60;85.30;;;;;;5040893;28;20052;-60
2021/11/09 12:18:39;;;;;;;47.65;9.82;;;9.60;85.40;;;;;;5039938;28;20041;-60
2021/11/09 12:21:34;;;;;;;35.35;9.13;;;9.60;85.30;;;;;;5040141;28;20105;-60
2021/11/09 12:24:07;;;;;;;30.30;9.52;;;9.60;85.30;;;;;;5036463;28;20707;-60
2021/11/09 12:26:38;;;;;;;25.42;8.05;;;9.60;85.00;;;;;;5038012;28;20460;-61
2021/11/09 12:29:33;;;;;;;26.85;8.68;;;9.60;85.10;;;;;;5041161;28;20017;-60
2021/11/09 12:32:31;;;;;;;40.42;8.73;;;9.50;84.90;;;;;;5038417;28;20133;-61
2021/11/09 12:35:02;;;;;;;34.20;9.70;;;9.60;85.00;;;;;;5044671;28;20116;-61
2021/11/09 12:37:29;;;;;;;62.85;11.13;;;9.50;85.00;;;;;;5043830;28;20020;-60
2021/11/09 12:40:33;;;;;;;39.95;9.90;;;9.50;84.90;;;;;;5041774;28;20021;-61
2021/11/09 12:43:06;;;;;;;32.67;9.10;;;9.60;85.00;;;;;;5041992;28;20124;-61
2021/11/09 12:45:32;;;;;;;32.22;8.15;;;9.60;84.90;;;;;;5023197;28;20889;-60
2021/11/09 12:48:12;;;;;;;43.15;9.82;;;9.60;84.90;;;;;;5041956;28;20040;-61
2021/11/09 12:50:43;;;;;;;33.38;9.32;;;9.60;84.70;;;;;;5043747;28;20029;-60
2021/11/09 12:53:10;;;;;;;30.25;8.40;;;9.60;84.80;;;;;;5039428;28;20025;-61
2021/11/09 12:55:36;;;;;;;25.40;8.25;;;9.60;84.80;;;;;;5025680;28;20355;-61
2021/11/09 12:58:34;;;;;;;38.00;9.00;;;9.60;84.80;;;;;;5024661;28;20068;-61
2021/11/09 13:04:16;;;;;;;29.45;8.10;;;9.60;84.80;;;;;;5037615;28;20048;-60
2021/11/09 13:09:45;;;;;;;40.65;9.57;;;9.60;84.70;;;;;;5042880;28;20028;-60
2021/11/09 13:12:19;;;;;;;31.83;8.57;;;9.60;84.70;;;;;;5039677;28;20076;-60
2021/11/09 13:14:57;;;;;;;42.08;9.30;;;9.70;84.90;;;;;;5042133;28;20048;-60
2021/11/09 13:17:25;;;;;;;31.00;8.90;;;9.70;84.80;;;;;;5039001;28;20029;-60
2021/11/09 13:20:07;;;;;;;38.70;8.77;;;9.70;84.80;;;;;;5034386;28;20116;-60
2021/11/09 13:22:32;;;;;;;37.20;9.38;;;9.70;84.70;;;;;;5034706;28;20037;-61
2021/11/09 13:24:59;;;;;;;24.00;8.00;;;9.80;84.80;;;;;;5038280;28;20052;-60
2021/11/09 13:27:40;;;;;;;36.03;8.00;;;9.70;84.60;;;;;;5035082;28;20017;-61
2021/11/09 13:30:19;;;;;;;37.80;9.13;;;9.80;84.70;;;;;;5036182;28;20090;-60
2021/11/09 13:32:51;;;;;;;42.97;9.43;;;9.80;84.70;;;;;;5035891;28;20021;-60
2021/11/09 13:35:30;;;;;;;29.10;7.18;;;9.80;84.50;;;;;;5032759;28;20134;-61
2021/11/09 13:38:15;;;;;;;34.58;8.77;;;9.80;84.50;;;;;;5039149;28;20029;-60
2021/11/09 13:40:45;;;;;;;23.00;7.68;;;9.80;84.40;;;;;;5035337;28;20040;-61
2021/11/09 13:43:12;;;;;;;40.45;8.10;;;9.90;84.50;;;;;;5019495;28;20021;-60
2021/11/09 13:45:38;;;;;;;31.85;8.70;;;9.80;84.30;;;;;;5038429;28;20560;-60
2021/11/09 13:48:18;;;;;;;32.58;8.25;;;9.80;84.30;;;;;;5019682;28;20138;-61
2021/11/09 13:50:46;;;;;;;45.33;8.30;;;9.80;84.30;;;;;;5039502;28;20116;-60
2021/11/09 13:53:12;;;;;;;19.35;7.43;;;9.90;84.30;;;;;;5037156;28;20128;-60
2021/11/09 13:55:39;;;;;;;37.65;9.23;;;9.80;84.20;;;;;;5038685;28;20254;-60
2021/11/09 13:58:05;;;;;;;31.05;8.38;;;9.90;84.30;;;;;;5020462;28;20420;-61
2021/11/09 14:00:35;;;;;;;34.35;8.02;;;9.90;84.30;;;;;;5017774;28;20040;-60
2021/11/09 14:08:34;;;;;;;40.33;8.30;;;9.90;84.10;;;;;;5040832;28;20061;-60
2021/11/09 14:13:38;;;;;;;37.95;10.52;;;9.90;84.10;;;;;;5031406;28;20420;-63
2021/11/09 14:18:48;;;;;;;28.92;9.63;;;9.90;83.90;;;;;;5034829;28;20580;-61
2021/11/09 14:21:13;;;;;;;50.35;9.02;;;9.90;84.00;;;;;;5022034;28;20078;-60
2021/11/09 14:23:40;;;;;;;35.30;8.57;;;9.90;83.70;;;;;;5033845;28;20420;-60
2021/11/09 14:26:22;;;;;;;33.20;8.57;;;9.90;83.70;;;;;;5037215;28;20021;-60
2021/11/09 14:28:49;;;;;;;32.90;7.60;;;9.90;83.70;;;;;;5037312;28;20385;-60
2021/11/09 14:31:25;;;;;;;40.25;8.50;;;9.90;83.70;;;;;;5035175;28;20124;-61
2021/11/09 14:33:52;;;;;;;;;;;9.90;83.70;;;;;;5037980;28;20039;-60
2021/11/09 14:36:32;;;;;;;45.22;8.93;;;9.90;83.70;;;;;;5038510;28;19908;-60
2021/11/09 14:39:18;;;;;;;31.38;8.15;;;9.90;83.90;;;;;;5036122;28;20488;-61
2021/11/09 14:42:13;;;;;;;41.00;8.70;;;9.90;84.10;;;;;;5038920;28;20040;-61
2021/11/09 14:44:56;;;;;;;42.22;9.07;;;10.00;84.00;;;;;;5044342;28;20850;-60
2021/11/09 14:47:21;;;;;;;91.50;12.90;;;9.90;84.00;;;;;;5034750;28;20048;-61
2021/11/09 14:49:57;;;;;;;61.30;9.95;;;10.00;84.10;;;;;;5026982;28;20075;-61
2021/11/09 14:52:28;;;;;;;56.25;9.50;;;10.00;84.20;;;;;;5021299;28;20029;-60
2021/11/09 14:55:16;;;;;;;41.80;10.10;;;10.00;84.20;;;;;;5026186;28;20150;-60
2021/11/09 14:57:42;;;;;;;50.85;9.65;;;10.00;84.20;;;;;;5026605;28;20040;-60
2021/11/09 15:00:08;;;;;;;39.20;8.32;;;10.00;84.30;;;;;;5044133;28;20026;-60
2021/11/09 15:02:33;;;;;;;45.42;9.75;;;10.00;84.40;;;;;;5040207;28;20063;-60
2021/11/09 15:04:59;;;;;;;42.58;8.38;;;10.10;84.50;;;;;;5037543;28;20186;-61
2021/11/09 15:07:34;;;;;;;48.08;9.48;;;10.00;84.40;;;;;;5039544;28;20021;-60
2021/11/09 15:12:49;;;;;;;43.50;8.45;;;10.10;84.50;;;;;;5041413;28;20132;-60
2021/11/09 15:31:52;;;;;;;73.93;11.70;;;10.10;85.10;;;;;;5040391;28;20033;-60
2021/11/09 15:34:35;;;;;;;85.65;12.93;;;10.20;85.40;;;;;;5038599;28;20179;-61
2021/11/09 15:39:29;;;;;;;40.72;9.40;;;10.20;85.50;;;;;;5039278;28;20025;-61
2021/11/09 15:41:56;;;;;;;50.40;11.02;;;10.20;85.40;;;;;;5038206;28;20507;-61
2021/11/09 15:44:22;;;;;;;87.45;12.50;;;10.20;85.50;;;;;;5040125;28;20124;-62